Terminal Aerodrome Forecast
Issued by NWS

Home | Current Version | Previous Version | Text Only | Print | Product List | Glossary On
Versions: 1 2 3 4 5 6 7 8 9 10 11 12 13 14 15 16 17 18 19 20 21 22 23 24 25 26 27 28 29 30 31 32 33 34 35 36 37 38 39 40 41 42 43 44 45 46 47 48 49 50
000
FTUS44 KHGX 211834 AAA
TAFLBX
TAF AMD
KLBX 211834Z 2119/2218 14005KT P6SM VCSH FEW029 BKN070 OVC080
      TEMPO 2119/2121 -RA BKN027
     FM220000 13010KT P6SM BKN035
     FM220300 13016KT P6SM BKN015
     FM220600 13013KT P6SM VCSH BKN015
      TEMPO 2210/2212 OVC010
     FM221600 13013G20KT P6SM VCTS BKN015 OVC030CB=

USA.gov is the U.S. government's official web portal to all federal, state and local government web resources and services.